Time;durP1;ratioP1;P1;durP2;ratioP2;P2;SDS_P1;SDS_P2;PMS_P1;PMS_P2;Temp;Humidity;BMP_temperature;BMP_pressure;BME280_temperature;BME280_humidity;BME280_pressure;Samples;Min_cycle;Max_cycle;Signal;HPM_P1;HPM_P2
2022/11/22 00:01:21;;;;;;;36.20;22.65;;;;;;;;;;4994268;28;20098;-78
2022/11/22 00:03:47;;;;;;;33.75;22.55;;;;;;;;;;4994653;28;20409;-71
2022/11/22 00:06:13;;;;;;;32.83;22.73;;;;;;;;;;4994861;28;20384;-79
2022/11/22 00:08:39;;;;;;;33.15;21.60;;;;;;;;;;4994718;28;20465;-78
2022/11/22 00:11:05;;;;;;;35.45;22.30;;;;;;;;;;4994599;28;20026;-78
2022/11/22 00:13:31;;;;;;;38.53;24.77;;;;;;;;;;4994683;28;20046;-72
2022/11/22 00:16:01;;;;;;;39.85;25.50;;;;;;;;;;4994394;28;20100;-78
2022/11/22 00:18:28;;;;;;;40.42;26.00;;;;;;;;;;4994532;28;20114;-76
2022/11/22 00:20:55;;;;;;;49.05;28.33;;;;;;;;;;4994417;28;20061;-78
2022/11/22 00:23:21;;;;;;;39.83;26.27;;;;;;;;;;4994528;28;20026;-72
2022/11/22 00:25:47;;;;;;;34.92;23.15;;;;;;;;;;4994450;28;20037;-77
2022/11/22 00:28:13;;;;;;;32.58;20.42;;;;;;;;;;4994454;28;20030;-78
2022/11/22 00:30:39;;;;;;;33.78;21.88;;;;;;;;;;4994259;28;20026;-73
2022/11/22 00:33:05;;;;;;;34.38;24.45;;;;;;;;;;4994119;28;20045;-77
2022/11/22 00:35:31;;;;;;;37.80;24.85;;;;;;;;;;4994326;28;20101;-72
2022/11/22 00:37:57;;;;;;;38.38;25.52;;;;;;;;;;4994199;28;20026;-73
2022/11/22 00:40:23;;;;;;;53.38;31.88;;;;;;;;;;4993882;28;20018;-78
2022/11/22 00:42:49;;;;;;;50.38;29.73;;;;;;;;;;4994121;28;20029;-75
2022/11/22 00:45:15;;;;;;;39.72;24.85;;;;;;;;;;4994124;28;20377;-73
2022/11/22 00:47:41;;;;;;;40.97;26.05;;;;;;;;;;4993984;28;20049;-72
2022/11/22 00:50:09;;;;;;;105.68;56.22;;;;;;;;;;4994103;28;20381;-77
2022/11/22 00:52:35;;;;;;;64.85;37.05;;;;;;;;;;4994189;28;20413;-77
2022/11/22 00:55:01;;;;;;;30.55;19.90;;;;;;;;;;4993798;28;20030;-73
2022/11/22 00:57:27;;;;;;;27.60;18.73;;;;;;;;;;4994236;28;20022;-76
2022/11/22 00:59:53;;;;;;;24.23;16.20;;;;;;;;;;4993928;28;20080;-77
2022/11/22 01:02:19;;;;;;;24.55;16.38;;;;;;;;;;4993603;28;20018;-77
2022/11/22 01:04:46;;;;;;;21.08;15.40;;;;;;;;;;4993871;28;20046;-71
2022/11/22 01:07:12;;;;;;;25.52;16.60;;;;;;;;;;4993727;28;20057;-77
2022/11/22 01:09:38;;;;;;;20.45;14.35;;;;;;;;;;4993603;28;20533;-72
2022/11/22 01:12:04;;;;;;;30.77;19.13;;;;;;;;;;4993692;28;20026;-78
2022/11/22 01:14:30;;;;;;;26.48;17.60;;;;;;;;;;4975523;28;20417;-75
2022/11/22 01:16:56;;;;;;;28.15;18.48;;;;;;;;;;4993357;28;20505;-77
2022/11/22 01:19:22;;;;;;;36.17;21.67;;;;;;;;;;4993506;28;20481;-75
2022/11/22 01:21:48;;;;;;;36.13;22.45;;;;;;;;;;4993723;28;20457;-77
2022/11/22 01:24:14;;;;;;;39.08;23.90;;;;;;;;;;4993510;28;20486;-77
2022/11/22 01:26:40;;;;;;;43.55;26.52;;;;;;;;;;4993316;28;20469;-76
2022/11/22 01:29:06;;;;;;;66.03;41.13;;;;;;;;;;4993285;28;20038;-77
2022/11/22 01:31:33;;;;;;;70.95;43.95;;;;;;;;;;4993277;28;20031;-77
2022/11/22 01:33:59;;;;;;;68.85;43.55;;;;;;;;;;4993509;28;20026;-73
2022/11/22 01:36:25;;;;;;;65.10;38.05;;;;;;;;;;4993252;28;20046;-71
2022/11/22 01:38:52;;;;;;;61.53;35.35;;;;;;;;;;4993492;28;20022;-71
2022/11/22 01:41:18;;;;;;;56.47;33.83;;;;;;;;;;4993257;28;20037;-77
2022/11/22 01:43:44;;;;;;;56.05;34.47;;;;;;;;;;4993654;28;20026;-77
2022/11/22 01:46:15;;;;;;;46.25;30.92;;;;;;;;;;4993081;28;20445;-71
2022/11/22 01:49:00;;;;;;;44.50;29.13;;;;;;;;;;4993095;28;20433;-75
2022/11/22 01:51:38;;;;;;;46.67;30.08;;;;;;;;;;4993239;28;20054;-77
2022/11/22 01:54:07;;;;;;;46.47;29.17;;;;;;;;;;4993186;28;20026;-72
2022/11/22 01:56:34;;;;;;;39.42;25.58;;;;;;;;;;4981572;28;20432;-78
2022/11/22 01:59:03;;;;;;;36.30;21.48;;;;;;;;;;4991228;28;20038;-75
2022/11/22 02:01:29;;;;;;;39.00;22.95;;;;;;;;;;4993249;28;20093;-75
2022/11/22 02:03:56;;;;;;;36.15;21.20;;;;;;;;;;4993279;28;20434;-77
2022/11/22 02:06:22;;;;;;;36.35;20.13;;;;;;;;;;4993277;28;20097;-72
2022/11/22 02:08:57;;;;;;;35.03;17.90;;;;;;;;;;4992979;28;20022;-77
2022/11/22 02:11:24;;;;;;;33.83;18.27;;;;;;;;;;4992959;28;20026;-77
2022/11/22 02:13:51;;;;;;;37.90;22.15;;;;;;;;;;4975380;28;20054;-73
2022/11/22 02:16:17;;;;;;;33.70;19.85;;;;;;;;;;4992838;28;20054;-77
2022/11/22 02:18:43;;;;;;;39.45;23.55;;;;;;;;;;4993095;28;20035;-74
2022/11/22 02:21:09;;;;;;;49.75;30.17;;;;;;;;;;4992903;28;20070;-76
2022/11/22 02:23:35;;;;;;;45.15;27.67;;;;;;;;;;4992929;28;20019;-77
2022/11/22 02:26:02;;;;;;;55.92;30.80;;;;;;;;;;4996335;28;20101;-71
2022/11/22 02:28:29;;;;;;;48.22;27.75;;;;;;;;;;4996497;28;20434;-73
2022/11/22 02:30:55;;;;;;;43.20;24.45;;;;;;;;;;4996743;28;20034;-77
2022/11/22 02:33:21;;;;;;;43.55;24.95;;;;;;;;;;4996592;28;20031;-73
2022/11/22 02:35:47;;;;;;;39.55;24.40;;;;;;;;;;4996456;28;20023;-77
2022/11/22 02:38:17;;;;;;;41.22;22.15;;;;;;;;;;4996406;28;20026;-77
2022/11/22 02:40:46;;;;;;;38.90;24.35;;;;;;;;;;4996385;28;20053;-77
2022/11/22 02:43:20;;;;;;;51.80;28.30;;;;;;;;;;4996311;28;20097;-74
2022/11/22 02:45:46;;;;;;;35.60;21.85;;;;;;;;;;4996703;28;20392;-77
2022/11/22 02:48:13;;;;;;;34.08;21.20;;;;;;;;;;4996112;28;20030;-76
2022/11/22 02:50:39;;;;;;;29.40;19.45;;;;;;;;;;4996205;28;20022;-72
2022/11/22 02:53:07;;;;;;;41.20;25.33;;;;;;;;;;4996173;28;20026;-76
2022/11/22 02:55:33;;;;;;;40.42;25.40;;;;;;;;;;4995762;28;20474;-77
2022/11/22 02:57:59;;;;;;;39.97;24.63;;;;;;;;;;4996062;28;20373;-74
2022/11/22 03:00:25;;;;;;;41.22;23.77;;;;;;;;;;4995882;28;20026;-71
2022/11/22 03:02:51;;;;;;;39.78;25.58;;;;;;;;;;4996058;28;20022;-76
2022/11/22 03:05:17;;;;;;;35.10;20.70;;;;;;;;;;4995963;28;20023;-76
2022/11/22 03:07:44;;;;;;;29.30;19.30;;;;;;;;;;4995744;28;20029;-77
2022/11/22 03:10:10;;;;;;;30.98;19.27;;;;;;;;;;4995857;28;20417;-72
2022/11/22 03:12:36;;;;;;;32.97;19.25;;;;;;;;;;4995675;28;20025;-74
2022/11/22 03:15:05;;;;;;;35.13;20.70;;;;;;;;;;4995978;28;20022;-72
2022/11/22 03:17:31;;;;;;;32.17;20.50;;;;;;;;;;4995490;28;20050;-74
2022/11/22 03:19:57;;;;;;;44.38;25.55;;;;;;;;;;4995842;28;20033;-77
2022/11/22 03:22:23;;;;;;;43.00;26.70;;;;;;;;;;4995471;28;20018;-76
2022/11/22 03:24:49;;;;;;;41.85;26.70;;;;;;;;;;4995518;28;20105;-77
2022/11/22 03:27:15;;;;;;;36.45;21.70;;;;;;;;;;4995398;28;20026;-75
2022/11/22 03:29:41;;;;;;;34.75;21.38;;;;;;;;;;4995402;28;20074;-76
2022/11/22 03:32:07;;;;;;;30.58;20.85;;;;;;;;;;4995728;28;20022;-78
2022/11/22 03:34:33;;;;;;;29.95;18.83;;;;;;;;;;4995369;28;20026;-78
2022/11/22 03:36:59;;;;;;;31.25;20.00;;;;;;;;;;4994592;28;20018;-73
2022/11/22 03:39:25;;;;;;;33.58;21.60;;;;;;;;;;4995374;28;20081;-76
2022/11/22 03:41:54;;;;;;;36.30;21.33;;;;;;;;;;4994968;28;20026;-73
2022/11/22 03:44:20;;;;;;;39.05;22.50;;;;;;;;;;4995599;28;20476;-77
2022/11/22 03:46:46;;;;;;;31.45;19.38;;;;;;;;;;4995139;28;20542;-74
2022/11/22 03:49:12;;;;;;;27.83;18.95;;;;;;;;;;4995071;28;20361;-71
2022/11/22 03:51:38;;;;;;;29.90;18.75;;;;;;;;;;4995164;28;20042;-78
2022/11/22 03:54:04;;;;;;;25.92;16.65;;;;;;;;;;4995421;28;20419;-71
2022/11/22 03:56:30;;;;;;;24.05;16.52;;;;;;;;;;4994648;28;20384;-77
2022/11/22 03:58:56;;;;;;;25.08;15.35;;;;;;;;;;4994941;28;20022;-75
2022/11/22 04:01:22;;;;;;;23.40;14.90;;;;;;;;;;4995085;28;20027;-77
2022/11/22 04:03:48;;;;;;;21.25;13.98;;;;;;;;;;4994819;28;20022;-77
2022/11/22 04:06:15;;;;;;;21.60;14.75;;;;;;;;;;4995179;28;20038;-73
2022/11/22 04:08:41;;;;;;;19.17;13.35;;;;;;;;;;4994720;28;20026;-76
2022/11/22 04:11:07;;;;;;;18.70;13.57;;;;;;;;;;4994487;28;20022;-71
2022/11/22 04:16:17;;;;;;;16.80;12.77;;;;;;;;;;4994598;28;20065;-77
2022/11/22 04:18:43;;;;;;;16.98;12.82;;;;;;;;;;4994390;28;20026;-74
2022/11/22 04:26:38;;;;;;;20.45;14.43;;;;;;;;;;4994300;28;20026;-71
2022/11/22 04:29:04;;;;;;;22.95;14.98;;;;;;;;;;4994315;28;20038;-77
2022/11/22 04:34:15;;;;;;;26.00;16.60;;;;;;;;;;4994349;28;20045;-77
2022/11/22 04:36:41;;;;;;;28.25;17.92;;;;;;;;;;4994402;28;20429;-71
2022/11/22 04:39:07;;;;;;;28.05;16.23;;;;;;;;;;4994203;28;20461;-75
2022/11/22 04:41:33;;;;;;;22.67;14.18;;;;;;;;;;4994095;28;20412;-72
2022/11/22 04:46:44;;;;;;;20.17;14.23;;;;;;;;;;4994288;28;20133;-78
2022/11/22 04:49:10;;;;;;;28.67;18.10;;;;;;;;;;4994020;28;20167;-72
2022/11/22 04:54:21;;;;;;;20.30;14.30;;;;;;;;;;4994414;28;20057;-76
2022/11/22 04:56:47;;;;;;;22.38;14.05;;;;;;;;;;4993853;28;20030;-76
2022/11/22 04:59:13;;;;;;;24.27;15.23;;;;;;;;;;4993945;28;20027;-77
2022/11/22 05:01:39;;;;;;;21.42;14.07;;;;;;;;;;4993652;28;20036;-72
2022/11/22 05:04:05;;;;;;;21.38;13.55;;;;;;;;;;4993778;28;20026;-78
2022/11/22 05:06:31;;;;;;;25.83;18.20;;;;;;;;;;4993785;28;20058;-76
2022/11/22 05:08:57;;;;;;;25.95;19.08;;;;;;;;;;4993682;28;20400;-78
2022/11/22 05:11:23;;;;;;;33.38;23.67;;;;;;;;;;4993792;28;20432;-77
2022/11/22 05:13:49;;;;;;;42.38;24.60;;;;;;;;;;4993475;28;20392;-76
2022/11/22 05:16:15;;;;;;;44.53;23.95;;;;;;;;;;4993357;28;20054;-78
2022/11/22 05:18:41;;;;;;;36.60;24.52;;;;;;;;;;4993728;28;20101;-72
2022/11/22 05:21:09;;;;;;;61.42;32.03;;;;;;;;;;4993821;28;20029;-77
2022/11/22 05:23:53;;;;;;;69.53;35.85;;;;;;;;;;4993607;28;20137;-77
2022/11/22 05:26:20;;;;;;;70.00;40.08;;;;;;;;;;4993362;28;20038;-77
2022/11/22 05:28:46;;;;;;;70.68;43.40;;;;;;;;;;4993320;28;20054;-76
2022/11/22 05:31:15;;;;;;;176.65;107.55;;;;;;;;;;4993598;28;20481;-77
2022/11/22 05:33:42;;;;;;;108.30;67.10;;;;;;;;;;4993614;28;20461;-77
2022/11/22 05:36:09;;;;;;;118.30;79.43;;;;;;;;;;4993416;28;20023;-71
2022/11/22 05:38:36;;;;;;;101.97;67.38;;;;;;;;;;4993655;28;20453;-76
2022/11/22 05:41:03;;;;;;;122.30;82.45;;;;;;;;;;4993386;28;20053;-72
2022/11/22 05:43:29;;;;;;;106.70;66.43;;;;;;;;;;4993025;28;20461;-72
2022/11/22 05:45:55;;;;;;;115.25;74.97;;;;;;;;;;4993653;28;20030;-71
2022/11/22 05:48:21;;;;;;;108.40;72.53;;;;;;;;;;4992764;28;20124;-76
2022/11/22 05:50:47;;;;;;;111.57;69.53;;;;;;;;;;4993552;28;20027;-75
2022/11/22 05:53:13;;;;;;;79.20;50.80;;;;;;;;;;4993212;28;20400;-72
2022/11/22 05:55:39;;;;;;;104.80;68.03;;;;;;;;;;4993200;28;20026;-76
2022/11/22 05:58:05;;;;;;;88.43;57.22;;;;;;;;;;4993181;28;20084;-73
2022/11/22 06:00:32;;;;;;;104.13;66.18;;;;;;;;;;4996098;28;20034;-77
2022/11/22 06:03:01;;;;;;;133.57;90.18;;;;;;;;;;4997284;28;20018;-74
2022/11/22 06:05:28;;;;;;;153.07;98.57;;;;;;;;;;4996994;28;20033;-71
2022/11/22 06:07:57;;;;;;;125.43;84.80;;;;;;;;;;4996939;28;20469;-71
2022/11/22 06:10:23;;;;;;;120.32;84.18;;;;;;;;;;4996835;28;20034;-76
2022/11/22 06:12:49;;;;;;;130.63;81.43;;;;;;;;;;4996588;28;20387;-77
2022/11/22 06:15:15;;;;;;;118.78;76.47;;;;;;;;;;4979192;28;20452;-78
2022/11/22 06:17:42;;;;;;;126.50;80.57;;;;;;;;;;4996582;28;20531;-72
2022/11/22 06:20:08;;;;;;;115.80;76.38;;;;;;;;;;4996899;28;20057;-78
2022/11/22 06:22:34;;;;;;;114.75;73.53;;;;;;;;;;4996546;28;20034;-73
2022/11/22 06:25:00;;;;;;;107.95;72.30;;;;;;;;;;4996593;28;20045;-75
2022/11/22 06:27:26;;;;;;;108.38;73.60;;;;;;;;;;4996629;28;20038;-71
2022/11/22 06:29:52;;;;;;;107.93;74.38;;;;;;;;;;4996297;28;20030;-73
2022/11/22 06:32:18;;;;;;;106.88;72.72;;;;;;;;;;4996495;28;20054;-79
2022/11/22 06:34:44;;;;;;;93.57;59.53;;;;;;;;;;4996421;28;20030;-78
2022/11/22 06:37:13;;;;;;;88.30;56.70;;;;;;;;;;4996472;28;20067;-77
2022/11/22 06:39:40;;;;;;;81.47;51.20;;;;;;;;;;4996355;28;20109;-78
2022/11/22 06:42:06;;;;;;;75.50;50.15;;;;;;;;;;4996264;28;20509;-79
2022/11/22 06:44:33;;;;;;;90.30;57.45;;;;;;;;;;4996181;28;20058;-78
2022/11/22 06:46:59;;;;;;;116.35;71.95;;;;;;;;;;4996151;28;20019;-79
2022/11/22 06:49:25;;;;;;;110.90;68.20;;;;;;;;;;4996096;28;20440;-78
2022/11/22 06:51:51;;;;;;;108.63;70.28;;;;;;;;;;4996083;28;20377;-74
2022/11/22 06:54:17;;;;;;;111.00;69.53;;;;;;;;;;4996088;28;20481;-78
2022/11/22 06:56:43;;;;;;;111.05;70.97;;;;;;;;;;4996109;28;20384;-79
2022/11/22 06:59:09;;;;;;;118.18;79.28;;;;;;;;;;4995916;28;20026;-78
2022/11/22 07:01:36;;;;;;;113.32;75.20;;;;;;;;;;4996140;28;20026;-72
2022/11/22 07:04:03;;;;;;;104.35;71.65;;;;;;;;;;4995908;28;20025;-79
2022/11/22 07:06:30;;;;;;;99.40;66.18;;;;;;;;;;4995864;28;20469;-71
2022/11/22 07:08:56;;;;;;;104.30;70.53;;;;;;;;;;4995654;28;20105;-78
2022/11/22 07:11:24;;;;;;;113.82;70.45;;;;;;;;;;4995251;28;20026;-78
2022/11/22 07:13:50;;;;;;;111.07;73.93;;;;;;;;;;4995521;28;20461;-72
2022/11/22 07:16:17;;;;;;;79.32;51.50;;;;;;;;;;4978144;28;20481;-78
2022/11/22 07:18:43;;;;;;;81.25;56.28;;;;;;;;;;4995539;28;20093;-78
2022/11/22 07:21:17;;;;;;;79.03;51.53;;;;;;;;;;4995598;28;20023;-78
2022/11/22 07:23:44;;;;;;;69.97;47.97;;;;;;;;;;4995688;28;20076;-72
2022/11/22 07:26:11;;;;;;;80.53;53.05;;;;;;;;;;4995591;28;20022;-79
2022/11/22 07:28:37;;;;;;;89.90;60.40;;;;;;;;;;4995111;28;20031;-78
2022/11/22 07:31:04;;;;;;;64.75;45.13;;;;;;;;;;4977964;28;20412;-79
2022/11/22 07:33:31;;;;;;;81.70;60.03;;;;;;;;;;4995666;28;20041;-76
2022/11/22 07:36:03;;;;;;;78.05;51.60;;;;;;;;;;4995455;28;20077;-77
2022/11/22 07:38:29;;;;;;;81.93;54.67;;;;;;;;;;4995286;28;20380;-78
2022/11/22 07:40:55;;;;;;;99.70;64.28;;;;;;;;;;4995261;28;20018;-78
2022/11/22 07:43:21;;;;;;;90.10;62.53;;;;;;;;;;4994825;28;20041;-78
2022/11/22 07:45:47;;;;;;;84.13;56.50;;;;;;;;;;4995524;28;20030;-79
2022/11/22 07:48:14;;;;;;;98.07;64.40;;;;;;;;;;4995004;28;20034;-78
2022/11/22 07:50:40;;;;;;;118.95;74.78;;;;;;;;;;4994991;28;20049;-79
2022/11/22 07:53:06;;;;;;;113.07;79.95;;;;;;;;;;4995541;28;20030;-72
2022/11/22 07:55:33;;;;;;;118.70;79.47;;;;;;;;;;4994813;28;20030;-78
2022/11/22 07:57:59;;;;;;;101.22;69.78;;;;;;;;;;4994781;28;20019;-71
2022/11/22 08:00:26;;;;;;;90.82;61.58;;;;;;;;;;4994820;28;20097;-78
2022/11/22 08:02:52;;;;;;;109.47;71.20;;;;;;;;;;4994664;28;20391;-78
2022/11/22 08:05:18;;;;;;;104.43;71.43;;;;;;;;;;4994751;28;20045;-79
2022/11/22 08:07:45;;;;;;;84.40;55.15;;;;;;;;;;4994810;28;20499;-71
2022/11/22 08:10:11;;;;;;;83.28;56.55;;;;;;;;;;4994784;28;20038;-75
2022/11/22 08:12:37;;;;;;;75.32;52.33;;;;;;;;;;4994305;28;20464;-78
2022/11/22 08:15:03;;;;;;;86.03;57.53;;;;;;;;;;4994617;28;20549;-77
2022/11/22 08:17:30;;;;;;;72.63;49.33;;;;;;;;;;4994337;28;20058;-74
2022/11/22 08:19:56;;;;;;;65.70;45.88;;;;;;;;;;4994491;28;20022;-73
2022/11/22 08:22:22;;;;;;;151.55;95.93;;;;;;;;;;4994037;28;20073;-78
2022/11/22 08:24:48;;;;;;;90.55;55.35;;;;;;;;;;4994313;28;20037;-71
2022/11/22 08:27:14;;;;;;;69.32;44.10;;;;;;;;;;4994292;28;20077;-77
2022/11/22 08:29:40;;;;;;;82.53;51.83;;;;;;;;;;4994098;28;20037;-77
2022/11/22 08:32:06;;;;;;;65.80;45.42;;;;;;;;;;4994277;28;20109;-78
2022/11/22 08:34:32;;;;;;;55.10;38.63;;;;;;;;;;4994357;28;20393;-75
2022/11/22 08:36:58;;;;;;;77.80;51.20;;;;;;;;;;4994044;28;20165;-76
2022/11/22 08:39:24;;;;;;;76.13;44.85;;;;;;;;;;4994466;28;20461;-78
2022/11/22 08:41:50;;;;;;;83.68;50.42;;;;;;;;;;4994212;28;20026;-74
2022/11/22 08:44:16;;;;;;;57.53;38.13;;;;;;;;;;4993874;28;20033;-78
2022/11/22 08:46:42;;;;;;;84.38;51.63;;;;;;;;;;4993783;28;20031;-76
2022/11/22 08:49:11;;;;;;;85.88;54.05;;;;;;;;;;4993943;28;20034;-71
2022/11/22 08:51:43;;;;;;;65.80;43.30;;;;;;;;;;4993954;28;20034;-78
2022/11/22 08:54:09;;;;;;;;;;;;;;;;;;4994465;28;20396;-78
2022/11/22 08:56:35;;;;;;;81.43;54.42;;;;;;;;;;4994248;28;19989;-77
2022/11/22 08:59:01;;;;;;;61.45;44.33;;;;;;;;;;4993131;28;20049;-77
2022/11/22 09:01:27;;;;;;;41.13;26.88;;;;;;;;;;4993591;28;20040;-79
2022/11/22 09:03:53;;;;;;;69.78;45.80;;;;;;;;;;4993522;28;20535;-78
2022/11/22 09:06:20;;;;;;;54.97;33.80;;;;;;;;;;4993725;28;20022;-71
2022/11/22 09:08:46;;;;;;;34.92;24.42;;;;;;;;;;4993440;28;20022;-72
2022/11/22 09:11:17;;;;;;;55.63;30.17;;;;;;;;;;4993736;28;20034;-78
2022/11/22 09:13:43;;;;;;;64.07;37.97;;;;;;;;;;4993424;28;20025;-77
2022/11/22 09:16:09;;;;;;;114.63;70.38;;;;;;;;;;4993518;28;20117;-77
2022/11/22 09:18:35;;;;;;;72.07;45.35;;;;;;;;;;4993487;28;20507;-77
2022/11/22 09:21:02;;;;;;;59.95;39.50;;;;;;;;;;4993364;28;20030;-76
2022/11/22 09:23:28;;;;;;;58.83;38.28;;;;;;;;;;4993495;28;20026;-78
2022/11/22 09:25:57;;;;;;;47.95;32.72;;;;;;;;;;4993456;28;20032;-78
2022/11/22 09:28:24;;;;;;;59.30;38.25;;;;;;;;;;4993136;28;20022;-78
2022/11/22 09:30:50;;;;;;;64.00;44.42;;;;;;;;;;4993448;28;20046;-73
2022/11/22 09:33:16;;;;;;;59.58;43.00;;;;;;;;;;4993465;28;20468;-78
2022/11/22 09:35:42;;;;;;;68.35;52.33;;;;;;;;;;4992920;28;20022;-71
2022/11/22 09:38:08;;;;;;;54.28;38.80;;;;;;;;;;4993258;28;20057;-71
2022/11/22 09:40:35;;;;;;;55.50;40.75;;;;;;;;;;4993312;28;20021;-78
2022/11/22 09:43:15;;;;;;;83.40;62.92;;;;;;;;;;4993143;28;20100;-71
2022/11/22 09:45:50;;;;;;;66.28;47.17;;;;;;;;;;4993712;28;20380;-72
2022/11/22 09:48:32;;;;;;;55.08;38.35;;;;;;;;;;4993117;28;20027;-78
2022/11/22 09:51:10;;;;;;;98.45;73.28;;;;;;;;;;4993193;28;20041;-78
2022/11/22 09:53:42;;;;;;;82.90;57.70;;;;;;;;;;4993465;28;20019;-78
2022/11/22 09:56:11;;;;;;;70.75;51.80;;;;;;;;;;4993277;28;20019;-78
2022/11/22 09:58:46;;;;;;;84.32;58.90;;;;;;;;;;4992891;28;20531;-78
2022/11/22 10:01:31;;;;;;;99.53;65.60;;;;;;;;;;4993351;28;20022;-77
2022/11/22 10:04:00;;;;;;;81.80;59.55;;;;;;;;;;4992651;28;20030;-78
2022/11/22 10:06:28;;;;;;;46.58;32.78;;;;;;;;;;4993104;28;20473;-76
2022/11/22 10:09:02;;;;;;;80.05;55.25;;;;;;;;;;4993252;28;20384;-77
2022/11/22 10:11:35;;;;;;;63.67;47.42;;;;;;;;;;4975393;28;20031;-72
2022/11/22 10:14:10;;;;;;;80.30;62.90;;;;;;;;;;4993336;28;20030;-71
2022/11/22 10:16:47;;;;;;;41.50;29.27;;;;;;;;;;4975194;28;20440;-77
2022/11/22 10:19:19;;;;;;;74.90;46.45;;;;;;;;;;4993058;28;20026;-77
2022/11/22 10:21:48;;;;;;;78.25;49.55;;;;;;;;;;4993274;28;20018;-77
2022/11/22 10:24:16;;;;;;;81.47;52.53;;;;;;;;;;4992954;28;20023;-77
2022/11/22 10:26:42;;;;;;;99.43;63.30;;;;;;;;;;4992843;28;20019;-74
2022/11/22 10:29:26;;;;;;;112.03;73.97;;;;;;;;;;4992626;28;20038;-78
2022/11/22 10:31:57;;;;;;;92.18;60.03;;;;;;;;;;4992777;28;20014;-77
2022/11/22 10:34:26;;;;;;;77.80;52.53;;;;;;;;;;4992984;28;20034;-78
2022/11/22 10:37:03;;;;;;;85.47;59.33;;;;;;;;;;4992774;28;20025;-77
2022/11/22 10:39:42;;;;;;;106.05;67.25;;;;;;;;;;4993358;28;20042;-77
2022/11/22 10:42:26;;;;;;;173.18;109.43;;;;;;;;;;4992641;28;20494;-78
2022/11/22 10:45:11;;;;;;;155.38;99.10;;;;;;;;;;4992796;28;20030;-78
2022/11/22 10:47:40;;;;;;;115.10;84.05;;;;;;;;;;4996465;28;20030;-78
2022/11/22 10:50:19;;;;;;;104.88;74.72;;;;;;;;;;4995922;28;20088;-78
2022/11/22 10:52:54;;;;;;;132.63;89.90;;;;;;;;;;4996250;28;20045;-73
2022/11/22 10:55:21;;;;;;;94.82;60.58;;;;;;;;;;4996096;28;20511;-78
2022/11/22 10:58:05;;;;;;;84.00;55.17;;;;;;;;;;4996188;28;20018;-78
2022/11/22 11:00:32;;;;;;;105.40;69.13;;;;;;;;;;4996391;28;20109;-72
2022/11/22 11:03:01;;;;;;;104.18;69.57;;;;;;;;;;4996516;28;20097;-78
2022/11/22 11:05:41;;;;;;;106.63;67.93;;;;;;;;;;4995721;28;20054;-72
2022/11/22 11:08:11;;;;;;;108.13;70.13;;;;;;;;;;4996098;28;20022;-78
2022/11/22 11:10:37;;;;;;;84.18;53.20;;;;;;;;;;4995722;28;20092;-77
2022/11/22 11:13:06;;;;;;;90.10;55.22;;;;;;;;;;4995808;28;20053;-78
2022/11/22 11:15:38;;;;;;;93.75;56.67;;;;;;;;;;4995560;28;20428;-78
2022/11/22 11:18:03;;;;;;;;;;;;;;;;;;4996330;28;20040;-79
2022/11/22 11:20:34;;;;;;;124.03;70.72;;;;;;;;;;4995788;28;19982;-79
2022/11/22 11:23:00;;;;;;;96.60;62.67;;;;;;;;;;4995414;28;20054;-72
2022/11/22 11:25:28;;;;;;;85.20;54.58;;;;;;;;;;4995696;28;20034;-78
2022/11/22 11:27:56;;;;;;;93.88;61.92;;;;;;;;;;4995729;28;20403;-74
2022/11/22 11:30:22;;;;;;;121.00;82.82;;;;;;;;;;4995364;28;20030;-76
2022/11/22 11:32:53;;;;;;;104.07;66.03;;;;;;;;;;4995536;28;20409;-78
2022/11/22 11:35:20;;;;;;;76.05;53.22;;;;;;;;;;4995311;28;20049;-78
2022/11/22 11:37:46;;;;;;;79.18;52.08;;;;;;;;;;4995942;28;20069;-78
2022/11/22 11:40:29;;;;;;;91.68;60.70;;;;;;;;;;4995193;28;20026;-78
2022/11/22 11:43:13;;;;;;;73.95;52.60;;;;;;;;;;4995188;28;20397;-78
2022/11/22 11:45:39;;;;;;;63.85;44.05;;;;;;;;;;4995297;28;20030;-77
2022/11/22 11:48:24;;;;;;;80.45;50.67;;;;;;;;;;4995225;28;20030;-77
2022/11/22 11:50:50;;;;;;;85.30;52.13;;;;;;;;;;4995176;28;20030;-78
2022/11/22 11:53:22;;;;;;;75.00;48.75;;;;;;;;;;4994912;28;20026;-78
2022/11/22 11:55:48;;;;;;;61.55;40.95;;;;;;;;;;4994943;28;20026;-78
2022/11/22 11:58:22;;;;;;;62.22;41.47;;;;;;;;;;4994454;28;20045;-78
2022/11/22 12:00:49;;;;;;;60.25;40.55;;;;;;;;;;4994790;28;20381;-78
2022/11/22 12:03:16;;;;;;;57.25;40.38;;;;;;;;;;4994906;28;20084;-78
2022/11/22 12:05:42;;;;;;;112.60;67.15;;;;;;;;;;4994560;28;20093;-74
2022/11/22 12:08:28;;;;;;;92.20;56.42;;;;;;;;;;4977427;28;20403;-78
2022/11/22 12:10:58;;;;;;;87.10;56.00;;;;;;;;;;4994512;28;20147;-78
2022/11/22 12:13:37;;;;;;;88.63;56.55;;;;;;;;;;4994727;28;20436;-78
2022/11/22 12:16:08;;;;;;;62.10;38.70;;;;;;;;;;4994308;28;20054;-71
2022/11/22 12:18:38;;;;;;;71.43;45.25;;;;;;;;;;4994639;28;20085;-74
2022/11/22 12:21:04;;;;;;;65.57;41.13;;;;;;;;;;4977065;28;20388;-77
2022/11/22 12:23:49;;;;;;;152.38;86.40;;;;;;;;;;4994557;28;20432;-77
2022/11/22 12:26:15;;;;;;;109.20;59.30;;;;;;;;;;4994418;28;20030;-78
2022/11/22 12:28:41;;;;;;;101.43;56.55;;;;;;;;;;4994228;28;20030;-78
2022/11/22 12:31:26;;;;;;;74.45;39.90;;;;;;;;;;4994153;28;20026;-76
2022/11/22 12:34:00;;;;;;;115.45;62.85;;;;;;;;;;4994154;28;20105;-77
2022/11/22 12:36:29;;;;;;;92.15;48.15;;;;;;;;;;4993868;28;20038;-77
2022/11/22 12:38:56;;;;;;;97.40;52.28;;;;;;;;;;4994117;28;20069;-78
2022/11/22 12:41:25;;;;;;;87.03;44.35;;;;;;;;;;4994160;28;20029;-78
2022/11/22 12:43:54;;;;;;;81.90;47.38;;;;;;;;;;4993821;28;20026;-79
2022/11/22 12:46:22;;;;;;;45.22;30.33;;;;;;;;;;4993955;28;20027;-76
2022/11/22 12:48:51;;;;;;;51.08;28.98;;;;;;;;;;4993767;28;20513;-77
2022/11/22 12:51:25;;;;;;;55.58;38.47;;;;;;;;;;4993886;28;20062;-78
2022/11/22 12:53:52;;;;;;;43.10;27.08;;;;;;;;;;4993723;28;20023;-72
2022/11/22 12:56:22;;;;;;;41.65;26.05;;;;;;;;;;4993642;28;20073;-72
2022/11/22 12:58:55;;;;;;;51.65;27.60;;;;;;;;;;4993877;28;20061;-78
2022/11/22 13:01:24;;;;;;;57.13;33.13;;;;;;;;;;4976565;28;20408;-76
2022/11/22 13:03:55;;;;;;;42.08;23.88;;;;;;;;;;4993707;28;20117;-78
2022/11/22 13:06:25;;;;;;;46.75;26.92;;;;;;;;;;4993646;28;20041;-77
2022/11/22 13:08:59;;;;;;;75.82;34.72;;;;;;;;;;4992503;28;20416;-78
2022/11/22 13:11:28;;;;;;;80.00;37.83;;;;;;;;;;4993978;28;20446;-78
2022/11/22 13:13:57;;;;;;;62.17;33.55;;;;;;;;;;4993515;28;20026;-75
2022/11/22 13:16:23;;;;;;;55.53;32.17;;;;;;;;;;4972693;28;20046;-79
2022/11/22 13:18:51;;;;;;;52.15;30.35;;;;;;;;;;4974242;28;20019;-72
2022/11/22 13:21:21;;;;;;;34.55;22.80;;;;;;;;;;4974209;28;20553;-78
2022/11/22 13:24:06;;;;;;;21.70;14.32;;;;;;;;;;4973921;28;20093;-77
2022/11/22 13:26:36;;;;;;;16.35;10.23;;;;;;;;;;4974176;28;20030;-78
2022/11/22 13:29:07;;;;;;;12.55;8.32;;;;;;;;;;4974136;28;20078;-77
2022/11/22 13:31:34;;;;;;;23.73;15.18;;;;;;;;;;4974463;28;20027;-71
2022/11/22 13:34:00;;;;;;;21.02;12.48;;;;;;;;;;4973884;28;20019;-76
2022/11/22 13:36:27;;;;;;;12.80;8.70;;;;;;;;;;4973969;28;20058;-78
2022/11/22 13:39:04;;;;;;;17.75;12.57;;;;;;;;;;4973999;28;20140;-75
2022/11/22 13:41:36;;;;;;;17.10;10.57;;;;;;;;;;4974005;28;20046;-72
2022/11/22 13:44:21;;;;;;;21.83;14.25;;;;;;;;;;4974379;28;20487;-75
2022/11/22 13:46:49;;;;;;;22.77;12.85;;;;;;;;;;4974003;28;20031;-74
2022/11/22 13:49:28;;;;;;;19.13;12.35;;;;;;;;;;4973908;28;20047;-77
2022/11/22 13:51:55;;;;;;;20.67;13.23;;;;;;;;;;4973700;28;20027;-77
2022/11/22 13:54:36;;;;;;;22.23;9.85;;;;;;;;;;4973769;28;20101;-75
2022/11/22 13:57:04;;;;;;;22.42;15.35;;;;;;;;;;4973584;28;20030;-76
2022/11/22 13:59:30;;;;;;;18.02;11.00;;;;;;;;;;4972451;28;20385;-78
2022/11/22 14:01:58;;;;;;;29.38;19.90;;;;;;;;;;4973753;28;20030;-72
2022/11/22 14:04:25;;;;;;;24.98;13.43;;;;;;;;;;4973721;28;20120;-71
2022/11/22 14:06:52;;;;;;;29.67;19.65;;;;;;;;;;4974094;28;20023;-77
2022/11/22 14:09:27;;;;;;;29.02;17.42;;;;;;;;;;4973410;28;20038;-71
2022/11/22 14:11:56;;;;;;;18.17;10.90;;;;;;;;;;4973376;28;20030;-79
2022/11/22 14:14:28;;;;;;;38.13;20.05;;;;;;;;;;4973511;28;20098;-78
2022/11/22 14:17:13;;;;;;;20.00;12.80;;;;;;;;;;4985664;28;20523;-72
2022/11/22 14:19:58;;;;;;;15.68;10.00;;;;;;;;;;4992952;28;20019;-78
2022/11/22 14:22:43;;;;;;;17.13;9.98;;;;;;;;;;4996449;28;20477;-77
2022/11/22 14:25:15;;;;;;;12.65;8.48;;;;;;;;;;4996525;28;20023;-72
2022/11/22 14:27:47;;;;;;;15.25;8.13;;;;;;;;;;4996868;28;20026;-77
2022/11/22 14:30:17;;;;;;;12.23;8.63;;;;;;;;;;4996098;28;20366;-77
2022/11/22 14:32:49;;;;;;;16.48;10.18;;;;;;;;;;4996340;28;20497;-72
2022/11/22 14:35:24;;;;;;;11.57;7.18;;;;;;;;;;4996325;28;20022;-77
2022/11/22 14:38:01;;;;;;;8.98;7.10;;;;;;;;;;4996673;28;20437;-78
2022/11/22 14:40:30;;;;;;;9.15;6.68;;;;;;;;;;4978896;28;20385;-78